sensor_id;sensor_type;location;lat;lon;timestamp;P1;durP1;ratioP1;P2;durP2;ratioP2
37201;SDS011;37799;52.390;6.136;2023-09-18T00:00:26;10.98;;;5.43;;
37201;SDS011;37799;52.390;6.136;2023-09-18T00:02:52;10.82;;;6.22;;
37201;SDS011;37799;52.390;6.136;2023-09-18T00:05:17;12.75;;;6.28;;
37201;SDS011;37799;52.390;6.136;2023-09-18T00:07:42;13.60;;;6.82;;
37201;SDS011;37799;52.390;6.136;2023-09-18T00:10:11;12.63;;;6.22;;
37201;SDS011;37799;52.390;6.136;2023-09-18T00:12:37;12.57;;;6.43;;
37201;SDS011;37799;52.390;6.136;2023-09-18T00:15:04;12.20;;;6.10;;
37201;SDS011;37799;52.390;6.136;2023-09-18T00:17:30;12.75;;;6.97;;
37201;SDS011;37799;52.390;6.136;2023-09-18T00:19:55;12.98;;;6.72;;
37201;SDS011;37799;52.390;6.136;2023-09-18T00:22:20;14.77;;;7.40;;
37201;SDS011;37799;52.390;6.136;2023-09-18T00:24:46;13.13;;;7.20;;
37201;SDS011;37799;52.390;6.136;2023-09-18T00:27:12;15.07;;;8.18;;
37201;SDS011;37799;52.390;6.136;2023-09-18T00:29:38;12.48;;;7.63;;
37201;SDS011;37799;52.390;6.136;2023-09-18T00:32:04;14.32;;;8.13;;
37201;SDS011;37799;52.390;6.136;2023-09-18T00:34:30;14.57;;;7.70;;
37201;SDS011;37799;52.390;6.136;2023-09-18T00:36:57;15.27;;;8.77;;
37201;SDS011;37799;52.390;6.136;2023-09-18T00:39:23;16.33;;;8.98;;
37201;SDS011;37799;52.390;6.136;2023-09-18T00:41:49;16.90;;;8.73;;
37201;SDS011;37799;52.390;6.136;2023-09-18T00:44:18;16.63;;;9.05;;
37201;SDS011;37799;52.390;6.136;2023-09-18T00:46:48;15.77;;;8.57;;
37201;SDS011;37799;52.390;6.136;2023-09-18T00:49:14;15.82;;;8.63;;
37201;SDS011;37799;52.390;6.136;2023-09-18T00:51:40;16.10;;;9.52;;
37201;SDS011;37799;52.390;6.136;2023-09-18T00:54:06;16.88;;;9.27;;
37201;SDS011;37799;52.390;6.136;2023-09-18T00:56:32;17.13;;;9.48;;
37201;SDS011;37799;52.390;6.136;2023-09-18T00:58:58;16.63;;;8.75;;
37201;SDS011;37799;52.390;6.136;2023-09-18T01:01:24;15.75;;;9.05;;
37201;SDS011;37799;52.390;6.136;2023-09-18T01:03:50;17.55;;;9.50;;
37201;SDS011;37799;52.390;6.136;2023-09-18T01:06:16;17.40;;;8.80;;
37201;SDS011;37799;52.390;6.136;2023-09-18T01:08:43;17.08;;;8.70;;
37201;SDS011;37799;52.390;6.136;2023-09-18T01:11:13;16.23;;;9.07;;
37201;SDS011;37799;52.390;6.136;2023-09-18T01:13:45;17.27;;;9.05;;
37201;SDS011;37799;52.390;6.136;2023-09-18T01:16:27;16.52;;;8.02;;
37201;SDS011;37799;52.390;6.136;2023-09-18T01:18:59;15.88;;;8.50;;
37201;SDS011;37799;52.390;6.136;2023-09-18T01:21:27;17.83;;;8.65;;
37201;SDS011;37799;52.390;6.136;2023-09-18T01:23:53;15.07;;;8.63;;
37201;SDS011;37799;52.390;6.136;2023-09-18T01:26:18;15.13;;;8.45;;
37201;SDS011;37799;52.390;6.136;2023-09-18T01:28:43;15.40;;;8.70;;
37201;SDS011;37799;52.390;6.136;2023-09-18T01:31:09;16.92;;;9.27;;
37201;SDS011;37799;52.390;6.136;2023-09-18T01:33:34;18.85;;;9.40;;
37201;SDS011;37799;52.390;6.136;2023-09-18T01:36:01;17.85;;;9.68;;
37201;SDS011;37799;52.390;6.136;2023-09-18T01:38:28;17.05;;;9.23;;
37201;SDS011;37799;52.390;6.136;2023-09-18T01:40:54;18.20;;;9.27;;
37201;SDS011;37799;52.390;6.136;2023-09-18T01:43:20;16.17;;;8.82;;
37201;SDS011;37799;52.390;6.136;2023-09-18T01:45:45;15.45;;;8.80;;
37201;SDS011;37799;52.390;6.136;2023-09-18T01:48:11;15.73;;;9.15;;
37201;SDS011;37799;52.390;6.136;2023-09-18T01:50:37;16.63;;;9.15;;
37201;SDS011;37799;52.390;6.136;2023-09-18T01:53:02;14.52;;;8.35;;
37201;SDS011;37799;52.390;6.136;2023-09-18T01:55:28;15.52;;;9.18;;
37201;SDS011;37799;52.390;6.136;2023-09-18T01:57:54;17.65;;;8.93;;
37201;SDS011;37799;52.390;6.136;2023-09-18T02:00:20;16.08;;;8.93;;
37201;SDS011;37799;52.390;6.136;2023-09-18T02:02:46;17.00;;;9.02;;
37201;SDS011;37799;52.390;6.136;2023-09-18T02:05:11;18.17;;;9.20;;
37201;SDS011;37799;52.390;6.136;2023-09-18T02:07:36;16.27;;;8.60;;
37201;SDS011;37799;52.390;6.136;2023-09-18T02:10:02;16.60;;;9.05;;
37201;SDS011;37799;52.390;6.136;2023-09-18T02:12:28;16.40;;;8.85;;
37201;SDS011;37799;52.390;6.136;2023-09-18T02:14:53;16.10;;;8.47;;
37201;SDS011;37799;52.390;6.136;2023-09-18T02:17:18;14.18;;;8.27;;
37201;SDS011;37799;52.390;6.136;2023-09-18T02:19:45;15.35;;;8.57;;
37201;SDS011;37799;52.390;6.136;2023-09-18T02:22:10;16.08;;;8.27;;
37201;SDS011;37799;52.390;6.136;2023-09-18T02:24:36;15.38;;;7.63;;
37201;SDS011;37799;52.390;6.136;2023-09-18T02:27:04;17.02;;;8.05;;
37201;SDS011;37799;52.390;6.136;2023-09-18T02:29:30;14.80;;;7.68;;
37201;SDS011;37799;52.390;6.136;2023-09-18T02:31:56;14.40;;;8.30;;
37201;SDS011;37799;52.390;6.136;2023-09-18T02:34:21;14.63;;;8.25;;
37201;SDS011;37799;52.390;6.136;2023-09-18T02:36:46;13.90;;;8.53;;
37201;SDS011;37799;52.390;6.136;2023-09-18T02:39:12;16.95;;;8.80;;
37201;SDS011;37799;52.390;6.136;2023-09-18T02:41:37;15.30;;;8.18;;
37201;SDS011;37799;52.390;6.136;2023-09-18T02:44:03;16.40;;;8.27;;
37201;SDS011;37799;52.390;6.136;2023-09-18T02:46:29;17.25;;;7.68;;
37201;SDS011;37799;52.390;6.136;2023-09-18T02:48:54;16.92;;;8.18;;
37201;SDS011;37799;52.390;6.136;2023-09-18T02:51:20;15.65;;;8.25;;
37201;SDS011;37799;52.390;6.136;2023-09-18T02:53:45;13.93;;;7.22;;
37201;SDS011;37799;52.390;6.136;2023-09-18T02:56:11;15.25;;;7.53;;
37201;SDS011;37799;52.390;6.136;2023-09-18T02:58:36;16.27;;;8.00;;
37201;SDS011;37799;52.390;6.136;2023-09-18T03:01:01;12.07;;;6.85;;
37201;SDS011;37799;52.390;6.136;2023-09-18T03:03:28;14.40;;;7.15;;
37201;SDS011;37799;52.390;6.136;2023-09-18T03:05:59;13.82;;;7.03;;
37201;SDS011;37799;52.390;6.136;2023-09-18T03:08:26;15.43;;;7.63;;
37201;SDS011;37799;52.390;6.136;2023-09-18T03:10:51;14.17;;;6.77;;
37201;SDS011;37799;52.390;6.136;2023-09-18T03:13:16;15.87;;;7.40;;
37201;SDS011;37799;52.390;6.136;2023-09-18T03:15:44;14.93;;;6.93;;
37201;SDS011;37799;52.390;6.136;2023-09-18T03:18:11;15.02;;;6.88;;
37201;SDS011;37799;52.390;6.136;2023-09-18T03:20:36;16.58;;;7.75;;
37201;SDS011;37799;52.390;6.136;2023-09-18T03:23:01;14.35;;;7.05;;
37201;SDS011;37799;52.390;6.136;2023-09-18T03:25:27;12.68;;;6.90;;
37201;SDS011;37799;52.390;6.136;2023-09-18T03:27:53;15.00;;;7.28;;
37201;SDS011;37799;52.390;6.136;2023-09-18T03:30:21;11.43;;;6.63;;
37201;SDS011;37799;52.390;6.136;2023-09-18T03:32:48;15.18;;;6.72;;
37201;SDS011;37799;52.390;6.136;2023-09-18T03:35:14;12.93;;;6.57;;
37201;SDS011;37799;52.390;6.136;2023-09-18T03:37:44;12.25;;;6.82;;
37201;SDS011;37799;52.390;6.136;2023-09-18T03:40:10;15.20;;;7.28;;
37201;SDS011;37799;52.390;6.136;2023-09-18T03:42:35;14.00;;;6.93;;
37201;SDS011;37799;52.390;6.136;2023-09-18T03:45:00;11.43;;;6.07;;
37201;SDS011;37799;52.390;6.136;2023-09-18T03:47:26;11.50;;;6.20;;
37201;SDS011;37799;52.390;6.136;2023-09-18T03:49:52;11.57;;;5.90;;
37201;SDS011;37799;52.390;6.136;2023-09-18T03:52:17;10.83;;;5.87;;
37201;SDS011;37799;52.390;6.136;2023-09-18T03:54:42;12.95;;;6.03;;
37201;SDS011;37799;52.390;6.136;2023-09-18T03:57:07;11.05;;;5.68;;
37201;SDS011;37799;52.390;6.136;2023-09-18T03:59:33;12.93;;;5.95;;
37201;SDS011;37799;52.390;6.136;2023-09-18T04:01:58;13.48;;;6.20;;
37201;SDS011;37799;52.390;6.136;2023-09-18T04:04:23;13.35;;;6.10;;
37201;SDS011;37799;52.390;6.136;2023-09-18T04:06:49;15.53;;;6.53;;
37201;SDS011;37799;52.390;6.136;2023-09-18T04:09:15;13.23;;;6.30;;
37201;SDS011;37799;52.390;6.136;2023-09-18T04:11:40;13.90;;;5.93;;
37201;SDS011;37799;52.390;6.136;2023-09-18T04:14:05;13.07;;;6.30;;
37201;SDS011;37799;52.390;6.136;2023-09-18T04:16:31;12.45;;;6.72;;
37201;SDS011;37799;52.390;6.136;2023-09-18T04:19:00;13.38;;;6.45;;
37201;SDS011;37799;52.390;6.136;2023-09-18T04:21:25;13.98;;;5.53;;
37201;SDS011;37799;52.390;6.136;2023-09-18T04:23:50;12.07;;;6.18;;
37201;SDS011;37799;52.390;6.136;2023-09-18T04:26:20;12.68;;;6.15;;
37201;SDS011;37799;52.390;6.136;2023-09-18T04:28:46;13.45;;;6.47;;
37201;SDS011;37799;52.390;6.136;2023-09-18T04:31:12;13.25;;;6.40;;
37201;SDS011;37799;52.390;6.136;2023-09-18T04:33:37;13.05;;;6.28;;
37201;SDS011;37799;52.390;6.136;2023-09-18T04:36:03;14.33;;;6.47;;
37201;SDS011;37799;52.390;6.136;2023-09-18T04:38:29;13.55;;;5.82;;
37201;SDS011;37799;52.390;6.136;2023-09-18T04:40:58;14.55;;;6.15;;
37201;SDS011;37799;52.390;6.136;2023-09-18T04:43:24;13.73;;;6.60;;
37201;SDS011;37799;52.390;6.136;2023-09-18T04:45:50;16.13;;;7.68;;
37201;SDS011;37799;52.390;6.136;2023-09-18T04:48:15;12.55;;;6.60;;
37201;SDS011;37799;52.390;6.136;2023-09-18T04:50:41;14.38;;;7.03;;
37201;SDS011;37799;52.390;6.136;2023-09-18T04:53:06;13.23;;;6.00;;
37201;SDS011;37799;52.390;6.136;2023-09-18T04:55:31;11.70;;;6.18;;
37201;SDS011;37799;52.390;6.136;2023-09-18T04:57:57;12.20;;;6.10;;
37201;SDS011;37799;52.390;6.136;2023-09-18T05:00:23;12.75;;;6.60;;
37201;SDS011;37799;52.390;6.136;2023-09-18T05:02:51;12.43;;;6.40;;
37201;SDS011;37799;52.390;6.136;2023-09-18T05:05:16;15.23;;;6.82;;
37201;SDS011;37799;52.390;6.136;2023-09-18T05:07:43;15.02;;;6.45;;
37201;SDS011;37799;52.390;6.136;2023-09-18T05:10:08;13.52;;;6.03;;
37201;SDS011;37799;52.390;6.136;2023-09-18T05:12:34;14.02;;;6.13;;
37201;SDS011;37799;52.390;6.136;2023-09-18T05:14:59;10.95;;;5.68;;
37201;SDS011;37799;52.390;6.136;2023-09-18T05:17:38;13.07;;;6.10;;
37201;SDS011;37799;52.390;6.136;2023-09-18T05:22:32;12.88;;;5.78;;
37201;SDS011;37799;52.390;6.136;2023-09-18T05:24:58;13.75;;;6.38;;
37201;SDS011;37799;52.390;6.136;2023-09-18T05:27:23;13.20;;;5.85;;
37201;SDS011;37799;52.390;6.136;2023-09-18T05:29:50;11.20;;;6.07;;
37201;SDS011;37799;52.390;6.136;2023-09-18T05:32:15;12.13;;;6.25;;
37201;SDS011;37799;52.390;6.136;2023-09-18T05:34:40;19.60;;;6.10;;
37201;SDS011;37799;52.390;6.136;2023-09-18T05:37:06;12.77;;;5.97;;
37201;SDS011;37799;52.390;6.136;2023-09-18T05:39:31;11.60;;;5.63;;
37201;SDS011;37799;52.390;6.136;2023-09-18T05:41:56;11.13;;;5.90;;
37201;SDS011;37799;52.390;6.136;2023-09-18T05:44:23;11.68;;;5.57;;
37201;SDS011;37799;52.390;6.136;2023-09-18T05:46:48;10.82;;;5.30;;
37201;SDS011;37799;52.390;6.136;2023-09-18T05:49:14;10.93;;;5.78;;
37201;SDS011;37799;52.390;6.136;2023-09-18T05:51:39;13.55;;;6.03;;
37201;SDS011;37799;52.390;6.136;2023-09-18T05:54:04;11.50;;;5.22;;
37201;SDS011;37799;52.390;6.136;2023-09-18T05:56:30;14.52;;;5.95;;
37201;SDS011;37799;52.390;6.136;2023-09-18T05:58:55;12.98;;;5.97;;
37201;SDS011;37799;52.390;6.136;2023-09-18T06:01:21;11.52;;;5.72;;
37201;SDS011;37799;52.390;6.136;2023-09-18T06:03:46;14.50;;;6.78;;
37201;SDS011;37799;52.390;6.136;2023-09-18T06:06:12;14.73;;;6.57;;
37201;SDS011;37799;52.390;6.136;2023-09-18T06:08:38;14.00;;;6.35;;
37201;SDS011;37799;52.390;6.136;2023-09-18T06:11:03;12.37;;;6.00;;
37201;SDS011;37799;52.390;6.136;2023-09-18T06:13:28;15.03;;;5.97;;
37201;SDS011;37799;52.390;6.136;2023-09-18T06:15:54;12.40;;;5.60;;
37201;SDS011;37799;52.390;6.136;2023-09-18T06:18:21;12.60;;;5.70;;
37201;SDS011;37799;52.390;6.136;2023-09-18T06:20:48;13.82;;;5.20;;
37201;SDS011;37799;52.390;6.136;2023-09-18T06:23:14;11.98;;;5.22;;
37201;SDS011;37799;52.390;6.136;2023-09-18T06:25:39;10.93;;;5.15;;
37201;SDS011;37799;52.390;6.136;2023-09-18T06:28:05;12.75;;;5.60;;
37201;SDS011;37799;52.390;6.136;2023-09-18T06:30:31;13.63;;;6.13;;
37201;SDS011;37799;52.390;6.136;2023-09-18T06:32:57;13.85;;;5.30;;
37201;SDS011;37799;52.390;6.136;2023-09-18T06:35:23;11.63;;;5.72;;
37201;SDS011;37799;52.390;6.136;2023-09-18T06:37:48;11.97;;;5.57;;
37201;SDS011;37799;52.390;6.136;2023-09-18T06:40:13;11.50;;;5.37;;
37201;SDS011;37799;52.390;6.136;2023-09-18T06:42:39;13.45;;;5.93;;
37201;SDS011;37799;52.390;6.136;2023-09-18T06:45:04;11.90;;;6.07;;
37201;SDS011;37799;52.390;6.136;2023-09-18T06:47:32;11.63;;;5.13;;
37201;SDS011;37799;52.390;6.136;2023-09-18T06:50:00;10.63;;;5.47;;
37201;SDS011;37799;52.390;6.136;2023-09-18T06:52:26;10.50;;;5.00;;
37201;SDS011;37799;52.390;6.136;2023-09-18T06:54:53;12.00;;;5.65;;
37201;SDS011;37799;52.390;6.136;2023-09-18T06:57:18;11.55;;;5.43;;
37201;SDS011;37799;52.390;6.136;2023-09-18T06:59:46;11.63;;;5.22;;
37201;SDS011;37799;52.390;6.136;2023-09-18T07:02:11;12.48;;;5.38;;
37201;SDS011;37799;52.390;6.136;2023-09-18T07:04:39;11.20;;;5.70;;
37201;SDS011;37799;52.390;6.136;2023-09-18T07:07:09;11.77;;;5.28;;
37201;SDS011;37799;52.390;6.136;2023-09-18T07:09:35;10.77;;;5.20;;
37201;SDS011;37799;52.390;6.136;2023-09-18T07:12:00;10.38;;;5.13;;
37201;SDS011;37799;52.390;6.136;2023-09-18T07:14:26;14.47;;;5.83;;
37201;SDS011;37799;52.390;6.136;2023-09-18T07:16:51;15.27;;;6.25;;
37201;SDS011;37799;52.390;6.136;2023-09-18T07:19:16;11.83;;;5.60;;
37201;SDS011;37799;52.390;6.136;2023-09-18T07:21:42;12.63;;;6.07;;
37201;SDS011;37799;52.390;6.136;2023-09-18T07:24:07;13.70;;;6.07;;
37201;SDS011;37799;52.390;6.136;2023-09-18T07:26:32;11.60;;;5.05;;
37201;SDS011;37799;52.390;6.136;2023-09-18T07:28:58;13.07;;;5.63;;
37201;SDS011;37799;52.390;6.136;2023-09-18T07:31:24;10.93;;;5.13;;
37201;SDS011;37799;52.390;6.136;2023-09-18T07:33:49;13.30;;;5.72;;
37201;SDS011;37799;52.390;6.136;2023-09-18T07:36:16;10.57;;;5.20;;
37201;SDS011;37799;52.390;6.136;2023-09-18T07:38:42;12.43;;;5.25;;
37201;SDS011;37799;52.390;6.136;2023-09-18T07:41:10;12.13;;;5.05;;
37201;SDS011;37799;52.390;6.136;2023-09-18T07:43:35;11.05;;;5.20;;
37201;SDS011;37799;52.390;6.136;2023-09-18T07:46:00;12.27;;;5.60;;
37201;SDS011;37799;52.390;6.136;2023-09-18T07:48:27;11.48;;;5.07;;
37201;SDS011;37799;52.390;6.136;2023-09-18T07:50:52;16.63;;;5.88;;
37201;SDS011;37799;52.390;6.136;2023-09-18T07:53:19;13.05;;;5.25;;
37201;SDS011;37799;52.390;6.136;2023-09-18T07:55:45;12.00;;;5.55;;
37201;SDS011;37799;52.390;6.136;2023-09-18T07:58:10;13.48;;;5.20;;
37201;SDS011;37799;52.390;6.136;2023-09-18T08:00:36;10.95;;;5.13;;
37201;SDS011;37799;52.390;6.136;2023-09-18T08:03:02;13.07;;;5.15;;
37201;SDS011;37799;52.390;6.136;2023-09-18T08:05:27;10.52;;;4.60;;
37201;SDS011;37799;52.390;6.136;2023-09-18T08:07:53;11.88;;;4.40;;
37201;SDS011;37799;52.390;6.136;2023-09-18T08:10:22;10.82;;;4.63;;
37201;SDS011;37799;52.390;6.136;2023-09-18T08:12:48;9.10;;;4.57;;
37201;SDS011;37799;52.390;6.136;2023-09-18T08:15:15;11.98;;;4.82;;
37201;SDS011;37799;52.390;6.136;2023-09-18T08:17:40;11.95;;;4.50;;
37201;SDS011;37799;52.390;6.136;2023-09-18T08:20:06;12.00;;;4.80;;
37201;SDS011;37799;52.390;6.136;2023-09-18T08:22:37;9.57;;;4.10;;
37201;SDS011;37799;52.390;6.136;2023-09-18T08:25:03;9.45;;;3.92;;
37201;SDS011;37799;52.390;6.136;2023-09-18T08:27:30;10.13;;;3.88;;
37201;SDS011;37799;52.390;6.136;2023-09-18T08:29:55;8.27;;;3.53;;
37201;SDS011;37799;52.390;6.136;2023-09-18T08:32:21;9.30;;;3.70;;
37201;SDS011;37799;52.390;6.136;2023-09-18T08:34:46;9.68;;;3.78;;
37201;SDS011;37799;52.390;6.136;2023-09-18T08:37:11;9.33;;;3.77;;
37201;SDS011;37799;52.390;6.136;2023-09-18T08:39:37;9.35;;;3.65;;
37201;SDS011;37799;52.390;6.136;2023-09-18T08:42:03;8.20;;;3.33;;
37201;SDS011;37799;52.390;6.136;2023-09-18T08:44:30;8.68;;;3.58;;
37201;SDS011;37799;52.390;6.136;2023-09-18T08:46:56;7.43;;;3.35;;
37201;SDS011;37799;52.390;6.136;2023-09-18T08:49:25;8.52;;;2.85;;
37201;SDS011;37799;52.390;6.136;2023-09-18T08:51:52;8.02;;;3.25;;
37201;SDS011;37799;52.390;6.136;2023-09-18T08:54:21;6.95;;;3.08;;
37201;SDS011;37799;52.390;6.136;2023-09-18T08:56:46;6.32;;;2.85;;
37201;SDS011;37799;52.390;6.136;2023-09-18T08:59:12;7.53;;;2.88;;
37201;SDS011;37799;52.390;6.136;2023-09-18T09:01:38;8.23;;;3.00;;
37201;SDS011;37799;52.390;6.136;2023-09-18T09:04:04;5.80;;;2.30;;
37201;SDS011;37799;52.390;6.136;2023-09-18T09:06:29;7.63;;;2.70;;
37201;SDS011;37799;52.390;6.136;2023-09-18T09:08:55;6.07;;;2.65;;
37201;SDS011;37799;52.390;6.136;2023-09-18T09:11:20;7.13;;;2.35;;
37201;SDS011;37799;52.390;6.136;2023-09-18T09:13:45;5.63;;;2.33;;
37201;SDS011;37799;52.390;6.136;2023-09-18T09:16:11;7.00;;;2.92;;
37201;SDS011;37799;52.390;6.136;2023-09-18T09:18:46;5.93;;;2.50;;
37201;SDS011;37799;52.390;6.136;2023-09-18T09:21:13;7.55;;;2.35;;
37201;SDS011;37799;52.390;6.136;2023-09-18T09:23:46;6.82;;;2.20;;
37201;SDS011;37799;52.390;6.136;2023-09-18T09:26:19;6.40;;;2.35;;
37201;SDS011;37799;52.390;6.136;2023-09-18T09:28:45;6.53;;;2.30;;
37201;SDS011;37799;52.390;6.136;2023-09-18T09:31:11;6.40;;;2.38;;
37201;SDS011;37799;52.390;6.136;2023-09-18T09:33:50;6.25;;;2.17;;
37201;SDS011;37799;52.390;6.136;2023-09-18T09:36:20;6.05;;;2.25;;
37201;SDS011;37799;52.390;6.136;2023-09-18T09:38:46;6.10;;;2.17;;
37201;SDS011;37799;52.390;6.136;2023-09-18T09:41:14;5.72;;;2.30;;
37201;SDS011;37799;52.390;6.136;2023-09-18T09:43:42;4.40;;;1.75;;
37201;SDS011;37799;52.390;6.136;2023-09-18T09:46:14;5.10;;;2.10;;
37201;SDS011;37799;52.390;6.136;2023-09-18T09:48:57;4.57;;;1.70;;
37201;SDS011;37799;52.390;6.136;2023-09-18T09:51:26;7.55;;;2.15;;
37201;SDS011;37799;52.390;6.136;2023-09-18T09:53:52;8.95;;;2.92;;
37201;SDS011;37799;52.390;6.136;2023-09-18T09:56:17;5.18;;;1.63;;
37201;SDS011;37799;52.390;6.136;2023-09-18T09:59:07;4.95;;;1.60;;
37201;SDS011;37799;52.390;6.136;2023-09-18T10:01:37;6.13;;;1.70;;
37201;SDS011;37799;52.390;6.136;2023-09-18T10:04:04;5.43;;;1.20;;
37201;SDS011;37799;52.390;6.136;2023-09-18T10:06:33;6.40;;;1.40;;
37201;SDS011;37799;52.390;6.136;2023-09-18T10:09:03;3.40;;;1.10;;
37201;SDS011;37799;52.390;6.136;2023-09-18T10:11:33;3.10;;;1.20;;
37201;SDS011;37799;52.390;6.136;2023-09-18T10:14:10;6.03;;;1.48;;
37201;SDS011;37799;52.390;6.136;2023-09-18T10:16:41;4.80;;;1.30;;
37201;SDS011;37799;52.390;6.136;2023-09-18T10:24:51;3.30;;;1.25;;
37201;SDS011;37799;52.390;6.136;2023-09-18T10:27:25;2.40;;;0.80;;
37201;SDS011;37799;52.390;6.136;2023-09-18T10:29:51;2.70;;;0.90;;
37201;SDS011;37799;52.390;6.136;2023-09-18T10:32:17;3.85;;;0.98;;
37201;SDS011;37799;52.390;6.136;2023-09-18T10:34:45;4.18;;;0.90;;
37201;SDS011;37799;52.390;6.136;2023-09-18T10:37:12;3.42;;;1.02;;
37201;SDS011;37799;52.390;6.136;2023-09-18T10:39:40;3.28;;;0.77;;
37201;SDS011;37799;52.390;6.136;2023-09-18T10:42:07;3.85;;;0.77;;
37201;SDS011;37799;52.390;6.136;2023-09-18T10:44:33;2.92;;;0.70;;
37201;SDS011;37799;52.390;6.136;2023-09-18T10:47:02;3.63;;;0.70;;
37201;SDS011;37799;52.390;6.136;2023-09-18T10:49:33;2.13;;;0.65;;
37201;SDS011;37799;52.390;6.136;2023-09-18T10:52:00;2.42;;;0.50;;
37201;SDS011;37799;52.390;6.136;2023-09-18T10:54:26;2.75;;;0.63;;
37201;SDS011;37799;52.390;6.136;2023-09-18T10:56:53;2.08;;;0.60;;
37201;SDS011;37799;52.390;6.136;2023-09-18T10:59:21;1.85;;;0.50;;
37201;SDS011;37799;52.390;6.136;2023-09-18T11:01:47;2.72;;;0.85;;
37201;SDS011;37799;52.390;6.136;2023-09-18T11:04:13;2.35;;;0.50;;
37201;SDS011;37799;52.390;6.136;2023-09-18T11:11:53;3.22;;;0.60;;
37201;SDS011;37799;52.390;6.136;2023-09-18T11:14:22;3.35;;;0.60;;
37201;SDS011;37799;52.390;6.136;2023-09-18T11:17:58;2.25;;;0.45;;
37201;SDS011;37799;52.390;6.136;2023-09-18T11:28:08;3.58;;;0.68;;
37201;SDS011;37799;52.390;6.136;2023-09-18T11:30:49;3.05;;;0.88;;
37201;SDS011;37799;52.390;6.136;2023-09-18T11:33:15;4.75;;;0.98;;
37201;SDS011;37799;52.390;6.136;2023-09-18T11:36:02;2.80;;;1.10;;
37201;SDS011;37799;52.390;6.136;2023-09-18T11:38:32;3.53;;;0.73;;
37201;SDS011;37799;52.390;6.136;2023-09-18T11:40:59;2.85;;;0.90;;
37201;SDS011;37799;52.390;6.136;2023-09-18T11:43:27;3.80;;;1.20;;
37201;SDS011;37799;52.390;6.136;2023-09-18T11:45:56;5.25;;;1.20;;
37201;SDS011;37799;52.390;6.136;2023-09-18T11:48:23;3.40;;;1.08;;
37201;SDS011;37799;52.390;6.136;2023-09-18T11:50:52;4.15;;;1.10;;
37201;SDS011;37799;52.390;6.136;2023-09-18T11:53:19;3.78;;;1.20;;
37201;SDS011;37799;52.390;6.136;2023-09-18T11:55:45;3.33;;;1.20;;
37201;SDS011;37799;52.390;6.136;2023-09-18T11:58:11;5.93;;;1.80;;
37201;SDS011;37799;52.390;6.136;2023-09-18T12:00:36;5.72;;;1.50;;
37201;SDS011;37799;52.390;6.136;2023-09-18T12:03:20;5.50;;;1.70;;
37201;SDS011;37799;52.390;6.136;2023-09-18T12:05:53;7.22;;;2.47;;
37201;SDS011;37799;52.390;6.136;2023-09-18T12:08:21;4.75;;;1.80;;
37201;SDS011;37799;52.390;6.136;2023-09-18T12:10:48;6.75;;;2.33;;
37201;SDS011;37799;52.390;6.136;2023-09-18T12:13:14;7.10;;;1.90;;
37201;SDS011;37799;52.390;6.136;2023-09-18T12:15:40;6.15;;;2.53;;
37201;SDS011;37799;52.390;6.136;2023-09-18T12:18:07;10.13;;;2.40;;
37201;SDS011;37799;52.390;6.136;2023-09-18T12:20:34;6.10;;;2.75;;
37201;SDS011;37799;52.390;6.136;2023-09-18T12:22:59;6.25;;;2.30;;
37201;SDS011;37799;52.390;6.136;2023-09-18T12:25:25;5.65;;;2.08;;
37201;SDS011;37799;52.390;6.136;2023-09-18T12:27:54;5.85;;;2.25;;
37201;SDS011;37799;52.390;6.136;2023-09-18T12:30:20;5.53;;;2.10;;
37201;SDS011;37799;52.390;6.136;2023-09-18T12:32:47;6.55;;;2.10;;
37201;SDS011;37799;52.390;6.136;2023-09-18T12:35:14;5.22;;;2.05;;
37201;SDS011;37799;52.390;6.136;2023-09-18T12:37:40;4.50;;;1.95;;
37201;SDS011;37799;52.390;6.136;2023-09-18T12:40:06;4.70;;;1.63;;
37201;SDS011;37799;52.390;6.136;2023-09-18T12:42:45;5.07;;;1.85;;
37201;SDS011;37799;52.390;6.136;2023-09-18T12:45:11;4.80;;;1.58;;
37201;SDS011;37799;52.390;6.136;2023-09-18T12:47:37;6.25;;;1.90;;
37201;SDS011;37799;52.390;6.136;2023-09-18T12:50:04;5.47;;;1.85;;
37201;SDS011;37799;52.390;6.136;2023-09-18T12:52:31;4.65;;;1.35;;
37201;SDS011;37799;52.390;6.136;2023-09-18T12:54:58;4.90;;;1.52;;
37201;SDS011;37799;52.390;6.136;2023-09-18T12:57:24;7.43;;;1.50;;
37201;SDS011;37799;52.390;6.136;2023-09-18T12:59:50;3.05;;;1.08;;
37201;SDS011;37799;52.390;6.136;2023-09-18T13:02:17;3.70;;;1.08;;
37201;SDS011;37799;52.390;6.136;2023-09-18T13:04:50;5.72;;;1.20;;
37201;SDS011;37799;52.390;6.136;2023-09-18T13:07:17;3.83;;;1.10;;
37201;SDS011;37799;52.390;6.136;2023-09-18T13:09:57;3.20;;;1.00;;
37201;SDS011;37799;52.390;6.136;2023-09-18T13:15:23;3.17;;;0.85;;
37201;SDS011;37799;52.390;6.136;2023-09-18T13:17:53;4.43;;;1.30;;
37201;SDS011;37799;52.390;6.136;2023-09-18T13:20:24;4.68;;;1.00;;
37201;SDS011;37799;52.390;6.136;2023-09-18T13:22:55;4.80;;;0.90;;
37201;SDS011;37799;52.390;6.136;2023-09-18T13:25:23;2.92;;;0.80;;
37201;SDS011;37799;52.390;6.136;2023-09-18T13:27:51;2.08;;;0.60;;
37201;SDS011;37799;52.390;6.136;2023-09-18T13:30:17;3.20;;;0.88;;
37201;SDS011;37799;52.390;6.136;2023-09-18T13:32:45;3.92;;;0.80;;
37201;SDS011;37799;52.390;6.136;2023-09-18T13:35:13;2.88;;;0.90;;
37201;SDS011;37799;52.390;6.136;2023-09-18T13:37:39;3.00;;;1.00;;
37201;SDS011;37799;52.390;6.136;2023-09-18T13:40:05;5.13;;;0.80;;
37201;SDS011;37799;52.390;6.136;2023-09-18T13:42:40;3.70;;;0.98;;
37201;SDS011;37799;52.390;6.136;2023-09-18T13:45:05;2.90;;;0.77;;
37201;SDS011;37799;52.390;6.136;2023-09-18T13:47:32;3.47;;;0.80;;
37201;SDS011;37799;52.390;6.136;2023-09-18T13:49:59;2.75;;;0.82;;
37201;SDS011;37799;52.390;6.136;2023-09-18T13:52:29;3.75;;;0.80;;
37201;SDS011;37799;52.390;6.136;2023-09-18T13:54:54;5.20;;;1.17;;
37201;SDS011;37799;52.390;6.136;2023-09-18T13:57:20;2.88;;;0.70;;
37201;SDS011;37799;52.390;6.136;2023-09-18T13:59:46;5.18;;;1.15;;
37201;SDS011;37799;52.390;6.136;2023-09-18T14:02:14;2.50;;;1.02;;
37201;SDS011;37799;52.390;6.136;2023-09-18T14:04:40;3.15;;;0.90;;
37201;SDS011;37799;52.390;6.136;2023-09-18T14:07:06;2.58;;;0.65;;
37201;SDS011;37799;52.390;6.136;2023-09-18T14:09:33;5.63;;;1.33;;
37201;SDS011;37799;52.390;6.136;2023-09-18T14:11:59;2.67;;;0.82;;
37201;SDS011;37799;52.390;6.136;2023-09-18T14:14:24;2.20;;;0.70;;
37201;SDS011;37799;52.390;6.136;2023-09-18T14:16:49;3.05;;;1.00;;
37201;SDS011;37799;52.390;6.136;2023-09-18T14:19:16;3.03;;;0.90;;
37201;SDS011;37799;52.390;6.136;2023-09-18T14:21:41;2.83;;;0.70;;
37201;SDS011;37799;52.390;6.136;2023-09-18T14:24:07;4.97;;;1.00;;
37201;SDS011;37799;52.390;6.136;2023-09-18T14:26:33;2.63;;;0.88;;
37201;SDS011;37799;52.390;6.136;2023-09-18T14:28:59;3.67;;;0.80;;
37201;SDS011;37799;52.390;6.136;2023-09-18T14:31:26;3.03;;;0.85;;
37201;SDS011;37799;52.390;6.136;2023-09-18T14:33:52;3.72;;;0.80;;
37201;SDS011;37799;52.390;6.136;2023-09-18T14:36:17;3.20;;;0.80;;
37201;SDS011;37799;52.390;6.136;2023-09-18T14:38:42;4.10;;;0.70;;
37201;SDS011;37799;52.390;6.136;2023-09-18T14:41:08;4.00;;;0.90;;
37201;SDS011;37799;52.390;6.136;2023-09-18T14:43:34;4.40;;;0.85;;
37201;SDS011;37799;52.390;6.136;2023-09-18T14:45:59;2.75;;;0.82;;
37201;SDS011;37799;52.390;6.136;2023-09-18T14:48:25;2.77;;;0.80;;
37201;SDS011;37799;52.390;6.136;2023-09-18T14:50:57;3.33;;;0.80;;
37201;SDS011;37799;52.390;6.136;2023-09-18T14:53:22;3.20;;;0.70;;
37201;SDS011;37799;52.390;6.136;2023-09-18T14:55:48;2.95;;;0.80;;
37201;SDS011;37799;52.390;6.136;2023-09-18T14:58:13;4.82;;;0.90;;
37201;SDS011;37799;52.390;6.136;2023-09-18T15:00:39;3.67;;;0.77;;
37201;SDS011;37799;52.390;6.136;2023-09-18T15:03:04;3.47;;;0.80;;